Time;durP1;ratioP1;P1;durP2;ratioP2;P2;SDS_P1;SDS_P2;PMS_P1;PMS_P2;Temp;Humidity;BMP_temperature;BMP_pressure;BME280_temperature;BME280_humidity;BME280_pressure;Samples;Min_cycle;Max_cycle;Signal;HPM_P1;HPM_P2
2021/12/06 00:00:29;;;;;;;48.97;26.08;;;3.10;99.90;;;;;;5127285;27;20507;-58
2021/12/06 00:02:57;;;;;;;49.50;26.95;;;3.10;99.90;;;;;;5131331;27;20096;-58
2021/12/06 00:05:25;;;;;;;48.80;25.45;;;3.10;99.90;;;;;;5125373;27;20433;-58
2021/12/06 00:07:51;;;;;;;47.70;25.00;;;3.10;99.90;;;;;;5129604;27;20381;-58
2021/12/06 00:10:17;;;;;;;48.97;26.27;;;3.10;99.90;;;;;;5130744;27;20031;-58
2021/12/06 00:12:43;;;;;;;49.15;26.55;;;3.00;99.90;;;;;;5126979;27;20052;-58
2021/12/06 00:15:11;;;;;;;49.55;26.10;;;3.10;99.90;;;;;;5135439;27;20114;-58
2021/12/06 00:17:37;;;;;;;51.22;26.98;;;3.10;99.90;;;;;;5132721;27;20019;-58
2021/12/06 00:20:07;;;;;;;52.70;27.42;;;3.00;99.90;;;;;;5134930;27;20079;-58
2021/12/06 00:22:33;;;;;;;54.42;28.38;;;3.00;99.90;;;;;;5127200;27;20130;-59
2021/12/06 00:24:59;;;;;;;53.08;27.98;;;3.00;99.90;;;;;;5132336;27;20601;-58
2021/12/06 00:27:26;;;;;;;52.55;26.98;;;3.00;99.90;;;;;;5130229;27;20035;-59
2021/12/06 00:29:52;;;;;;;51.53;26.58;;;3.00;99.90;;;;;;5130419;27;20099;-58
2021/12/06 00:32:18;;;;;;;47.80;26.05;;;3.00;99.90;;;;;;5133155;27;20071;-58
2021/12/06 00:34:44;;;;;;;46.97;25.33;;;3.00;99.90;;;;;;5134806;27;20039;-58
2021/12/06 00:37:21;;;;;;;49.38;27.55;;;3.00;99.90;;;;;;5125184;27;20031;-58
2021/12/06 00:39:53;;;;;;;52.80;27.45;;;3.00;99.90;;;;;;5128506;27;20508;-58
2021/12/06 00:42:21;;;;;;;55.70;28.33;;;3.00;99.90;;;;;;5129860;27;20043;-58
2021/12/06 00:44:48;;;;;;;49.75;27.77;;;3.00;99.90;;;;;;5134649;27;20039;-58
2021/12/06 00:47:14;;;;;;;52.85;27.95;;;2.90;99.90;;;;;;5131701;27;20058;-58
2021/12/06 00:49:40;;;;;;;52.90;28.50;;;2.90;99.90;;;;;;5134614;27;20043;-58
2021/12/06 00:52:07;;;;;;;51.75;27.88;;;2.90;99.90;;;;;;5130694;27;20076;-58
2021/12/06 00:54:35;;;;;;;53.55;29.08;;;2.90;99.90;;;;;;5133042;27;20050;-59
2021/12/06 00:57:06;;;;;;;53.03;27.38;;;2.90;99.90;;;;;;5128948;27;20047;-58
2021/12/06 00:59:32;;;;;;;51.70;26.92;;;2.90;99.90;;;;;;5131368;27;20042;-58
2021/12/06 01:02:00;;;;;;;54.05;27.98;;;2.90;99.90;;;;;;5126102;27;20122;-58
2021/12/06 01:04:31;;;;;;;53.35;27.75;;;2.80;99.90;;;;;;5132599;27;20071;-58
2021/12/06 01:06:57;;;;;;;55.08;27.98;;;2.80;99.90;;;;;;5129045;27;20069;-58
2021/12/06 01:09:23;;;;;;;53.33;27.08;;;2.80;99.90;;;;;;5129811;27;20067;-58
2021/12/06 01:11:49;;;;;;;54.63;28.17;;;2.80;99.90;;;;;;5130624;27;20122;-58
2021/12/06 01:14:15;;;;;;;56.05;29.98;;;2.80;99.90;;;;;;5133763;27;20050;-58
2021/12/06 01:16:40;;;;;;;58.22;28.88;;;2.80;99.90;;;;;;5132274;27;20031;-58
2021/12/06 01:19:06;;;;;;;56.97;29.63;;;2.80;99.90;;;;;;5132859;27;20051;-58
2021/12/06 01:24:12;;;;;;;53.47;27.50;;;2.90;99.90;;;;;;5133245;27;20118;-58
2021/12/06 01:32:20;;;;;;;47.13;27.33;;;2.80;99.90;;;;;;5126352;27;20193;-58
2021/12/06 01:40:10;;;;;;;49.08;27.15;;;2.80;99.90;;;;;;5133210;27;20049;-58
2021/12/06 01:42:36;;;;;;;48.50;27.60;;;2.80;99.90;;;;;;5127843;27;20083;-58
2021/12/06 01:45:04;;;;;;;48.10;26.55;;;2.80;99.90;;;;;;5133677;27;20393;-58
2021/12/06 01:47:33;;;;;;;46.45;26.35;;;2.80;99.90;;;;;;5131182;27;20042;-58
2021/12/06 01:50:04;;;;;;;47.78;27.83;;;2.80;99.90;;;;;;5128985;27;20057;-58
2021/12/06 01:52:34;;;;;;;47.08;27.48;;;2.80;99.90;;;;;;5129386;27;20042;-58
2021/12/06 01:55:00;;;;;;;50.30;27.83;;;2.70;99.90;;;;;;5133215;27;20389;-58
2021/12/06 01:57:28;;;;;;;46.35;27.45;;;2.80;99.90;;;;;;5124144;27;20036;-58
2021/12/06 01:59:55;;;;;;;52.42;29.08;;;2.80;99.90;;;;;;5128806;27;20053;-58
2021/12/06 02:02:22;;;;;;;45.50;26.33;;;2.80;99.90;;;;;;5130114;27;20031;-58
2021/12/06 02:04:48;;;;;;;47.15;28.13;;;2.80;99.90;;;;;;5132925;27;20136;-58
2021/12/06 02:07:18;;;;;;;48.10;26.65;;;2.80;99.90;;;;;;5128931;27;20039;-58
2021/12/06 02:09:47;;;;;;;48.10;27.25;;;2.80;99.90;;;;;;5130424;27;20043;-58
2021/12/06 02:12:14;;;;;;;46.90;27.05;;;2.80;99.90;;;;;;5130297;27;20039;-58
2021/12/06 02:17:33;;;;;;;49.33;26.67;;;2.80;99.90;;;;;;5109302;27;20067;-58
2021/12/06 02:20:10;;;;;;;47.22;25.73;;;2.80;99.90;;;;;;5128404;27;20067;-58
2021/12/06 02:22:38;;;;;;;45.53;25.20;;;2.80;99.90;;;;;;5120361;27;20142;-58
2021/12/06 02:25:08;;;;;;;48.55;25.27;;;2.80;99.90;;;;;;5129705;27;20035;-58
2021/12/06 02:27:33;;;;;;;49.42;24.80;;;2.80;99.90;;;;;;5130626;27;20035;-58
2021/12/06 02:30:04;;;;;;;49.50;24.85;;;2.80;99.90;;;;;;5124091;27;20489;-58
2021/12/06 02:32:29;;;;;;;50.83;25.70;;;2.80;99.90;;;;;;5132571;27;20402;-58
2021/12/06 02:34:57;;;;;;;51.38;25.85;;;2.80;99.90;;;;;;5127121;27;20034;-58
2021/12/06 02:37:30;;;;;;;51.70;25.92;;;2.80;99.90;;;;;;5127752;27;20031;-58
2021/12/06 02:39:57;;;;;;;52.23;27.00;;;2.80;99.90;;;;;;5128121;27;20035;-58
2021/12/06 02:42:25;;;;;;;50.63;27.25;;;2.80;99.90;;;;;;5131818;27;20412;-58
2021/12/06 02:44:52;;;;;;;54.17;27.65;;;2.70;99.90;;;;;;5129555;27;20035;-58
2021/12/06 02:47:19;;;;;;;55.33;29.00;;;2.70;99.90;;;;;;5132207;27;20043;-58
2021/12/06 02:49:46;;;;;;;53.88;27.15;;;2.70;99.90;;;;;;5120881;27;20039;-58
2021/12/06 02:52:13;;;;;;;56.78;28.35;;;2.70;99.90;;;;;;5127910;27;20058;-58
2021/12/06 02:54:41;;;;;;;58.53;30.30;;;2.70;99.90;;;;;;5126209;27;20035;-58
2021/12/06 02:59:35;;;;;;;59.17;29.20;;;2.70;99.90;;;;;;5129400;27;20121;-58
2021/12/06 03:02:06;;;;;;;59.50;28.50;;;2.70;99.90;;;;;;5128029;27;20084;-58
2021/12/06 03:04:32;;;;;;;62.13;29.70;;;2.70;99.90;;;;;;5130932;27;20546;-58
2021/12/06 03:06:59;;;;;;;61.42;29.80;;;2.70;99.90;;;;;;5130783;27;20050;-58
2021/12/06 03:09:33;;;;;;;62.92;30.05;;;2.70;99.90;;;;;;5126416;27;20047;-58
2021/12/06 03:12:11;;;;;;;59.70;30.40;;;2.70;99.90;;;;;;5131328;27;20039;-58
2021/12/06 03:14:46;;;;;;;63.80;31.30;;;2.70;99.90;;;;;;5121523;27;20035;-58
2021/12/06 03:17:15;;;;;;;60.30;30.67;;;2.70;99.90;;;;;;5131658;27;20035;-58
2021/12/06 03:19:41;;;;;;;66.35;31.08;;;2.70;99.90;;;;;;5130322;27;20134;-58
2021/12/06 03:22:10;;;;;;;63.95;30.98;;;2.70;99.90;;;;;;5129342;27;20039;-58
2021/12/06 03:24:36;;;;;;;67.90;31.05;;;2.80;99.90;;;;;;5129649;27;20027;-58
2021/12/06 03:27:03;;;;;;;70.15;31.35;;;2.70;99.90;;;;;;5131865;27;20046;-58
2021/12/06 03:29:29;;;;;;;69.07;30.90;;;2.70;99.90;;;;;;5127709;27;20386;-59
2021/12/06 03:31:55;;;;;;;68.72;31.17;;;2.70;99.90;;;;;;5131246;28;20035;-59
2021/12/06 03:34:26;;;;;;;72.43;32.90;;;2.70;99.90;;;;;;5129111;27;20555;-59
2021/12/06 03:36:56;;;;;;;72.90;32.17;;;2.70;99.90;;;;;;5126200;27;20043;-59
2021/12/06 03:39:32;;;;;;;79.38;32.78;;;2.70;99.90;;;;;;5130260;27;20470;-58
2021/12/06 03:42:03;;;;;;;78.93;33.22;;;2.70;99.90;;;;;;5133319;27;20042;-58
2021/12/06 03:44:29;;;;;;;85.97;33.90;;;2.70;99.90;;;;;;5124879;27;20039;-58
2021/12/06 03:47:03;;;;;;;88.28;34.05;;;2.70;99.90;;;;;;5126039;27;20039;-58
2021/12/06 03:49:29;;;;;;;86.13;34.78;;;2.70;99.90;;;;;;5134515;27;20035;-58
2021/12/06 03:51:55;;;;;;;83.72;32.30;;;2.70;99.90;;;;;;5130889;27;20093;-58
2021/12/06 03:54:26;;;;;;;92.60;34.33;;;2.70;99.90;;;;;;5127998;27;20067;-58
2021/12/06 03:56:52;;;;;;;88.72;33.40;;;2.70;99.90;;;;;;5135463;27;20035;-58
2021/12/06 03:59:18;;;;;;;97.20;35.78;;;2.70;99.90;;;;;;5134246;27;20096;-58
2021/12/06 04:01:46;;;;;;;95.63;35.20;;;2.70;99.90;;;;;;5135799;27;20031;-58
2021/12/06 04:04:12;;;;;;;95.75;34.83;;;2.90;99.90;;;;;;5130775;27;20057;-58
2021/12/06 04:06:43;;;;;;;98.60;35.65;;;2.70;99.90;;;;;;5135489;27;20031;-58
2021/12/06 04:09:09;;;;;;;110.05;36.17;;;2.70;99.90;;;;;;5127902;27;20047;-58
2021/12/06 04:11:36;;;;;;;108.28;37.67;;;2.70;99.90;;;;;;5134803;27;20035;-58
2021/12/06 04:14:04;;;;;;;95.47;36.10;;;2.60;99.90;;;;;;5133797;27;20083;-58
2021/12/06 04:16:30;;;;;;;109.30;36.85;;;2.70;99.90;;;;;;5135506;27;20372;-58
2021/12/06 04:18:55;;;;;;;113.40;36.95;;;2.60;99.90;;;;;;5130711;27;20107;-58
2021/12/06 04:21:23;;;;;;;94.32;34.65;;;2.60;99.90;;;;;;5135168;27;20078;-58
2021/12/06 04:23:49;;;;;;;103.35;37.33;;;2.60;99.90;;;;;;5132016;27;20046;-58
2021/12/06 04:26:15;;;;;;;102.93;37.25;;;2.60;99.90;;;;;;5134350;27;20045;-58
2021/12/06 04:28:47;;;;;;;121.13;37.88;;;2.60;99.90;;;;;;5132131;27;20509;-58
2021/12/06 04:31:14;;;;;;;117.93;37.95;;;2.60;99.90;;;;;;5133905;27;20070;-58
2021/12/06 04:33:40;;;;;;;112.10;37.88;;;2.60;99.90;;;;;;5129564;27;20035;-58
2021/12/06 04:36:05;;;;;;;126.20;38.40;;;2.60;99.90;;;;;;5133567;27;20038;-58
2021/12/06 04:38:31;;;;;;;109.65;36.55;;;2.60;99.90;;;;;;5129421;27;20099;-58
2021/12/06 04:40:57;;;;;;;112.07;34.60;;;2.70;99.90;;;;;;5134934;27;20031;-58
2021/12/06 04:43:23;;;;;;;114.97;35.45;;;2.70;99.90;;;;;;5130935;27;20108;-59
2021/12/06 04:45:48;;;;;;;114.82;36.55;;;2.70;99.90;;;;;;5131604;27;20080;-58
2021/12/06 04:48:14;;;;;;;121.47;35.70;;;2.70;99.90;;;;;;5132721;27;20157;-58
2021/12/06 04:50:42;;;;;;;121.20;36.25;;;2.70;99.90;;;;;;5129664;27;20087;-58
2021/12/06 04:53:15;;;;;;;117.60;35.30;;;2.60;99.90;;;;;;5130776;27;20489;-58
2021/12/06 04:55:50;;;;;;;122.37;35.43;;;2.70;99.90;;;;;;5132755;27;20028;-58
2021/12/06 04:58:22;;;;;;;112.47;34.95;;;2.70;99.90;;;;;;5133318;27;20352;-58
2021/12/06 05:00:54;;;;;;;129.63;32.47;;;2.70;99.90;;;;;;5129765;27;20573;-58
2021/12/06 05:03:20;;;;;;;139.68;35.97;;;2.60;99.90;;;;;;5134238;27;20050;-58
2021/12/06 05:05:51;;;;;;;146.02;36.22;;;2.60;99.90;;;;;;5129734;27;20070;-58
2021/12/06 05:08:28;;;;;;;151.50;35.95;;;2.60;99.90;;;;;;5129116;27;20039;-58
2021/12/06 05:10:57;;;;;;;151.10;35.92;;;2.70;99.90;;;;;;5131528;27;20118;-58
2021/12/06 05:13:24;;;;;;;150.05;36.85;;;2.60;99.90;;;;;;5131255;27;20036;-58
2021/12/06 05:15:50;;;;;;;170.73;36.60;;;2.60;99.90;;;;;;5134083;27;20091;-58
2021/12/06 05:18:16;;;;;;;182.30;38.33;;;2.60;99.90;;;;;;5131433;27;20039;-58
2021/12/06 05:20:42;;;;;;;157.85;36.83;;;2.60;99.90;;;;;;5133663;27;20058;-58
2021/12/06 05:23:10;;;;;;;160.80;38.80;;;2.60;99.90;;;;;;5130781;27;20035;-58
2021/12/06 05:25:37;;;;;;;167.00;38.13;;;2.60;99.90;;;;;;5132996;27;20031;-58
2021/12/06 05:28:04;;;;;;;202.43;40.10;;;2.60;99.90;;;;;;5133459;27;20144;-58
2021/12/06 05:30:31;;;;;;;180.95;39.53;;;2.60;99.90;;;;;;5129505;27;20034;-58
2021/12/06 05:32:58;;;;;;;171.95;38.53;;;2.60;99.90;;;;;;5133703;27;20469;-58
2021/12/06 05:35:25;;;;;;;152.95;37.97;;;2.60;99.90;;;;;;5131208;27;20031;-58
2021/12/06 05:37:56;;;;;;;187.27;39.53;;;2.60;99.90;;;;;;5131698;27;20091;-58
2021/12/06 05:40:31;;;;;;;192.35;41.10;;;2.50;99.90;;;;;;5132158;27;20049;-58
2021/12/06 05:42:57;;;;;;;189.90;41.53;;;2.60;99.90;;;;;;5131502;27;20031;-58
2021/12/06 05:45:27;;;;;;;184.57;40.75;;;2.60;99.90;;;;;;5131268;27;20042;-58
2021/12/06 05:47:53;;;;;;;180.75;41.55;;;3.50;99.90;;;;;;5131883;27;20035;-58
2021/12/06 05:50:20;;;;;;;181.80;38.60;;;2.60;99.90;;;;;;5128854;27;20558;-58
2021/12/06 05:52:46;;;;;;;209.07;41.85;;;2.60;99.90;;;;;;5132290;27;20071;-58
2021/12/06 05:55:13;;;;;;;188.98;42.28;;;2.60;99.90;;;;;;5129491;27;20054;-57
2021/12/06 05:57:40;;;;;;;192.23;41.10;;;2.60;99.90;;;;;;5133358;27;20084;-58
2021/12/06 06:00:09;;;;;;;219.90;42.40;;;2.60;99.90;;;;;;5130850;27;20031;-58
2021/12/06 06:02:35;;;;;;;187.52;41.10;;;2.60;99.90;;;;;;5130576;27;20114;-58
2021/12/06 06:05:00;;;;;;;191.68;42.33;;;2.60;99.90;;;;;;5133255;27;20126;-58
2021/12/06 06:07:26;;;;;;;191.68;42.00;;;2.60;99.90;;;;;;5127388;27;20031;-58
2021/12/06 06:09:52;;;;;;;200.48;42.65;;;2.60;99.90;;;;;;5133052;27;20031;-58
2021/12/06 06:12:17;;;;;;;185.40;42.45;;;2.60;99.90;;;;;;5129950;27;20113;-58
2021/12/06 06:14:43;;;;;;;197.73;41.80;;;2.60;99.90;;;;;;5131566;27;20108;-58
2021/12/06 06:17:12;;;;;;;202.70;44.13;;;2.60;99.90;;;;;;5127222;27;20040;-59
2021/12/06 06:19:42;;;;;;;186.00;43.13;;;2.60;99.90;;;;;;5124126;27;20039;-59
2021/12/06 06:22:08;;;;;;;194.52;44.15;;;2.60;99.90;;;;;;5127780;27;20055;-58
2021/12/06 06:24:34;;;;;;;174.10;41.35;;;2.60;99.90;;;;;;5131725;27;20431;-58
2021/12/06 06:27:00;;;;;;;166.23;41.13;;;2.60;99.90;;;;;;5132384;27;20030;-58
2021/12/06 06:29:26;;;;;;;172.30;42.35;;;2.70;99.90;;;;;;5126495;27;20079;-59
2021/12/06 06:31:51;;;;;;;168.68;41.47;;;2.60;99.90;;;;;;5132836;27;20054;-58
2021/12/06 06:34:17;;;;;;;170.23;43.78;;;2.60;99.90;;;;;;5130222;27;20069;-58
2021/12/06 06:36:43;;;;;;;161.07;41.35;;;2.60;99.90;;;;;;5129982;27;20397;-58
2021/12/06 06:39:10;;;;;;;159.82;41.00;;;2.60;99.90;;;;;;5129047;27;20513;-58
2021/12/06 06:41:36;;;;;;;158.75;42.13;;;2.60;99.90;;;;;;5132579;27;20034;-59
2021/12/06 06:44:03;;;;;;;156.80;43.85;;;2.70;99.90;;;;;;5126531;27;20747;-59
2021/12/06 06:46:29;;;;;;;157.13;43.25;;;2.70;99.90;;;;;;5132446;27;20489;-59
2021/12/06 06:48:56;;;;;;;148.77;42.58;;;2.70;99.90;;;;;;5128303;27;20140;-59
2021/12/06 06:51:27;;;;;;;151.57;41.75;;;2.70;99.90;;;;;;5132392;27;20035;-58
2021/12/06 06:53:53;;;;;;;155.57;43.05;;;2.70;99.90;;;;;;5120714;27;20077;-59
2021/12/06 06:56:19;;;;;;;145.48;42.00;;;2.70;99.90;;;;;;5122031;27;20549;-58
2021/12/06 06:58:44;;;;;;;123.47;38.67;;;2.80;99.90;;;;;;5114717;27;20036;-59
2021/12/06 07:01:10;;;;;;;136.32;40.05;;;2.80;99.90;;;;;;5113414;27;20043;-59
2021/12/06 07:03:36;;;;;;;132.98;39.03;;;2.80;99.90;;;;;;5108296;27;20385;-58
2021/12/06 07:06:03;;;;;;;146.43;42.85;;;2.80;99.90;;;;;;5093505;27;21853;-58
2021/12/06 07:08:29;;;;;;;143.90;41.63;;;2.70;99.90;;;;;;5095565;27;20375;-58
2021/12/06 07:10:56;;;;;;;125.13;40.78;;;2.80;99.90;;;;;;5101902;27;20494;-57
2021/12/06 07:13:22;;;;;;;119.45;38.00;;;2.80;99.90;;;;;;5091618;27;20043;-58
2021/12/06 07:15:49;;;;;;;124.03;39.75;;;2.70;99.90;;;;;;5076795;28;20039;-58
2021/12/06 07:18:15;;;;;;;112.90;38.40;;;2.70;99.90;;;;;;5088696;27;20079;-58
2021/12/06 07:20:41;;;;;;;109.85;38.67;;;2.70;99.90;;;;;;5091147;27;20067;-58
2021/12/06 07:23:07;;;;;;;110.22;36.88;;;2.70;99.90;;;;;;5089552;28;20058;-58
2021/12/06 07:25:34;;;;;;;112.40;38.60;;;2.60;99.90;;;;;;5095328;28;20044;-58
2021/12/06 07:28:00;;;;;;;109.10;38.00;;;2.60;99.90;;;;;;5091748;27;20465;-58
2021/12/06 07:30:26;;;;;;;110.38;39.00;;;2.60;99.90;;;;;;5090904;28;20040;-58
2021/12/06 07:32:52;;;;;;;116.72;36.85;;;2.60;99.90;;;;;;5093430;28;20043;-58
2021/12/06 07:35:19;;;;;;;106.03;37.38;;;2.60;99.90;;;;;;5091303;28;20043;-58
2021/12/06 07:37:45;;;;;;;110.75;39.08;;;2.50;99.90;;;;;;5092244;28;20043;-58
2021/12/06 07:40:14;;;;;;;110.72;38.90;;;2.50;99.90;;;;;;5092972;28;20774;-58
2021/12/06 07:42:39;;;;;;;106.38;37.55;;;2.50;99.90;;;;;;5092061;27;20047;-58
2021/12/06 07:45:09;;;;;;;112.38;38.03;;;2.50;99.90;;;;;;5092579;28;20089;-58
2021/12/06 07:47:37;;;;;;;106.57;36.92;;;2.50;99.90;;;;;;5092567;28;20787;-58
2021/12/06 07:50:07;;;;;;;117.32;38.70;;;2.50;99.90;;;;;;5092506;28;20039;-58
2021/12/06 07:52:33;;;;;;;108.25;38.25;;;2.50;99.90;;;;;;5095667;28;20844;-58
2021/12/06 07:55:00;;;;;;;107.25;37.63;;;2.50;99.90;;;;;;5093459;28;20047;-59
2021/12/06 07:57:27;;;;;;;110.40;37.75;;;2.80;99.90;;;;;;5090677;28;20104;-58
2021/12/06 07:59:54;;;;;;;109.70;37.45;;;2.50;99.90;;;;;;5095314;27;20099;-59
2021/12/06 08:02:20;;;;;;;108.25;37.08;;;2.50;99.90;;;;;;5090084;28;20051;-58
2021/12/06 08:04:48;;;;;;;103.22;36.42;;;2.50;99.90;;;;;;5092500;28;20487;-58
2021/12/06 08:07:15;;;;;;;105.68;36.30;;;2.50;99.90;;;;;;5104864;27;20043;-58
2021/12/06 08:09:40;;;;;;;97.15;37.70;;;2.50;99.90;;;;;;5083696;27;21979;-58
2021/12/06 08:12:07;;;;;;;91.82;35.35;;;2.50;99.90;;;;;;5085101;28;20451;-59
2021/12/06 08:14:32;;;;;;;101.03;36.03;;;2.50;99.90;;;;;;5083432;28;20039;-59
2021/12/06 08:16:58;;;;;;;95.15;34.72;;;2.40;99.90;;;;;;5085286;28;20490;-58
2021/12/06 08:19:24;;;;;;;94.00;33.33;;;2.40;99.90;;;;;;5084917;28;20090;-58
2021/12/06 08:21:50;;;;;;;83.90;32.83;;;2.40;99.90;;;;;;5088983;28;20400;-58
2021/12/06 08:24:16;;;;;;;84.72;31.65;;;2.40;99.90;;;;;;5086845;28;20046;-58
2021/12/06 08:26:44;;;;;;;87.75;32.17;;;2.30;99.90;;;;;;5085992;28;20114;-59
2021/12/06 08:29:13;;;;;;;83.93;31.33;;;2.30;99.90;;;;;;5089279;27;20521;-59
2021/12/06 08:31:41;;;;;;;83.93;32.22;;;2.30;99.90;;;;;;5092823;27;20065;-58
2021/12/06 08:34:08;;;;;;;79.72;31.25;;;2.20;99.90;;;;;;5088234;27;20054;-59
2021/12/06 08:36:34;;;;;;;86.93;30.95;;;2.20;99.90;;;;;;5090600;27;20426;-59
2021/12/06 08:39:00;;;;;;;84.38;29.67;;;2.20;99.90;;;;;;5090014;27;20375;-58
2021/12/06 08:41:28;;;;;;;81.20;30.88;;;2.20;99.90;;;;;;5088743;27;20047;-58
2021/12/06 08:43:56;;;;;;;92.22;31.75;;;2.10;99.90;;;;;;5088330;27;20043;-58
2021/12/06 08:46:26;;;;;;;90.80;31.70;;;1.20;99.90;;;;;;5089222;27;20039;-59
2021/12/06 08:48:53;;;;;;;90.38;32.55;;;2.10;99.90;;;;;;5088229;27;20047;-59
2021/12/06 08:51:26;;;;;;;92.90;31.55;;;2.10;99.90;;;;;;5092902;27;20086;-58
2021/12/06 08:53:52;;;;;;;91.57;32.58;;;2.10;99.90;;;;;;5090184;27;20506;-58
2021/12/06 08:56:18;;;;;;;97.82;34.13;;;2.00;99.90;;;;;;5088222;27;20032;-58
2021/12/06 08:58:45;;;;;;;92.43;32.50;;;2.70;99.90;;;;;;5088953;27;20046;-58
2021/12/06 09:01:11;;;;;;;94.80;31.65;;;2.00;99.90;;;;;;5112950;27;20031;-58
2021/12/06 09:03:37;;;;;;;86.78;30.73;;;2.10;99.90;;;;;;5125464;27;20043;-58
2021/12/06 09:06:06;;;;;;;88.25;31.00;;;2.10;99.90;;;;;;5122689;27;20088;-58
2021/12/06 09:08:33;;;;;;;87.72;31.33;;;2.10;99.90;;;;;;5121279;27;20527;-58
2021/12/06 09:10:59;;;;;;;83.95;29.70;;;2.10;99.90;;;;;;5121594;27;20046;-58
2021/12/06 09:13:28;;;;;;;94.93;30.63;;;2.10;99.90;;;;;;5122325;27;20146;-58
2021/12/06 09:15:56;;;;;;;90.88;31.58;;;2.10;99.90;;;;;;5123058;27;20507;-58
2021/12/06 09:18:23;;;;;;;93.57;30.83;;;2.10;99.90;;;;;;5118061;27;20114;-58
2021/12/06 09:20:50;;;;;;;93.30;32.38;;;2.20;99.90;;;;;;5125666;27;20059;-58
2021/12/06 09:23:17;;;;;;;94.13;30.98;;;2.20;99.90;;;;;;5122512;27;20038;-58
2021/12/06 09:25:46;;;;;;;94.50;31.10;;;2.10;99.90;;;;;;5124123;27;20039;-58
2021/12/06 09:28:14;;;;;;;99.88;33.25;;;2.20;99.90;;;;;;5123584;27;20535;-58
2021/12/06 09:30:40;;;;;;;99.22;30.83;;;2.20;99.90;;;;;;5120123;27;20482;-58
2021/12/06 09:33:09;;;;;;;96.68;33.55;;;2.20;99.90;;;;;;5123377;27;20490;-58
2021/12/06 09:35:37;;;;;;;95.78;30.73;;;2.20;99.90;;;;;;5123190;27;20088;-58
2021/12/06 09:38:05;;;;;;;98.28;31.38;;;2.30;99.90;;;;;;5123028;27;20043;-58
2021/12/06 09:40:33;;;;;;;87.75;29.63;;;2.20;99.90;;;;;;5123269;27;20036;-59
2021/12/06 09:43:00;;;;;;;93.43;29.20;;;2.20;99.90;;;;;;5123003;27;20513;-58
2021/12/06 09:45:33;;;;;;;88.70;30.90;;;2.20;99.90;;;;;;5124104;27;20508;-59
2021/12/06 09:48:01;;;;;;;95.75;29.95;;;2.10;99.90;;;;;;5119954;27;20038;-58
2021/12/06 09:50:56;;;;;;;106.63;32.60;;;2.10;99.90;;;;;;5094976;27;20043;-59
2021/12/06 09:53:29;;;;;;;105.07;30.95;;;2.10;99.90;;;;;;5089400;27;20156;-58
2021/12/06 09:55:59;;;;;;;111.22;33.30;;;2.20;99.90;;;;;;5092100;27;20174;-59
2021/12/06 09:58:25;;;;;;;109.18;34.33;;;2.20;99.90;;;;;;5087691;27;20494;-58
2021/12/06 10:00:59;;;;;;;122.32;33.60;;;2.20;99.90;;;;;;5087076;27;20031;-59
2021/12/06 10:03:28;;;;;;;116.32;33.78;;;2.20;99.90;;;;;;5109106;27;20099;-59
2021/12/06 10:06:01;;;;;;;123.05;35.17;;;2.20;99.90;;;;;;5118601;27;20038;-58
2021/12/06 10:08:32;;;;;;;120.53;34.17;;;2.20;99.90;;;;;;5112206;27;20432;-58
2021/12/06 10:10:58;;;;;;;111.32;33.45;;;2.20;99.90;;;;;;5119052;27;20084;-58
2021/12/06 10:13:24;;;;;;;110.35;32.65;;;2.20;99.90;;;;;;5111655;27;20039;-58
2021/12/06 10:15:52;;;;;;;119.28;33.75;;;2.20;99.90;;;;;;5110873;27;20040;-59
2021/12/06 10:18:20;;;;;;;112.47;34.47;;;2.20;99.90;;;;;;5113724;27;20451;-58
2021/12/06 10:20:47;;;;;;;118.43;34.40;;;2.20;99.90;;;;;;5118854;27;20054;-58
2021/12/06 10:23:15;;;;;;;111.47;32.58;;;2.30;99.90;;;;;;5117200;27;20043;-58
2021/12/06 10:25:44;;;;;;;125.88;35.22;;;2.30;99.90;;;;;;5117812;27;20038;-58
2021/12/06 10:28:10;;;;;;;114.90;34.03;;;2.50;99.90;;;;;;5120430;27;20131;-58
2021/12/06 10:30:49;;;;;;;106.80;33.13;;;2.30;99.90;;;;;;5118985;27;20042;-59
2021/12/06 10:33:19;;;;;;;112.80;34.88;;;2.30;99.90;;;;;;5123100;27;20063;-59
2021/12/06 10:35:54;;;;;;;110.57;32.63;;;2.30;99.90;;;;;;5123145;27;20455;-58
2021/12/06 10:38:27;;;;;;;105.57;32.92;;;2.30;99.90;;;;;;5125385;27;20034;-58
2021/12/06 10:41:03;;;;;;;113.80;33.03;;;2.40;99.90;;;;;;5127793;27;20382;-58
2021/12/06 10:43:29;;;;;;;109.75;33.58;;;2.40;99.90;;;;;;5121635;27;20040;-59
2021/12/06 10:45:56;;;;;;;111.13;32.65;;;2.30;99.90;;;;;;5097292;27;20038;-58
2021/12/06 10:48:30;;;;;;;110.45;33.97;;;2.40;99.90;;;;;;5094227;27;20620;-58
2021/12/06 10:51:12;;;;;;;118.57;34.40;;;2.40;99.90;;;;;;5092675;27;20046;-59
2021/12/06 10:53:45;;;;;;;108.90;34.35;;;2.40;99.90;;;;;;5091304;27;20039;-59
2021/12/06 10:56:20;;;;;;;116.45;36.08;;;2.40;99.90;;;;;;5094033;27;20390;-59
2021/12/06 10:58:50;;;;;;;116.60;35.50;;;2.40;99.90;;;;;;5097122;27;20124;-59
2021/12/06 11:01:19;;;;;;;111.53;34.45;;;2.40;99.90;;;;;;5123087;27;21872;-58
2021/12/06 11:03:51;;;;;;;114.30;35.28;;;2.40;99.90;;;;;;5104288;27;20446;-59
2021/12/06 11:06:27;;;;;;;113.38;36.05;;;2.40;99.90;;;;;;5131546;27;20498;-59
2021/12/06 11:08:56;;;;;;;120.60;36.40;;;2.40;99.90;;;;;;5104800;27;20657;-59
2021/12/06 11:11:29;;;;;;;125.07;36.88;;;2.30;99.90;;;;;;5090801;27;22498;-58
2021/12/06 11:14:19;;;;;;;127.88;38.75;;;2.40;99.90;;;;;;5088584;27;20027;-59
2021/12/06 11:16:52;;;;;;;126.50;38.75;;;2.40;99.90;;;;;;5087480;27;20166;-59
2021/12/06 11:19:20;;;;;;;;;;;2.40;99.90;;;;;;5115234;27;20135;-58
2021/12/06 11:21:52;;;;;;;135.75;39.50;;;2.40;99.90;;;;;;5114767;27;20028;-59
2021/12/06 11:24:25;;;;;;;124.20;37.58;;;2.40;99.90;;;;;;5089333;28;20048;-59
2021/12/06 11:27:07;;;;;;;131.43;42.40;;;2.50;99.90;;;;;;5092066;27;20042;-59
2021/12/06 11:29:40;;;;;;;134.95;41.33;;;2.50;99.90;;;;;;5090831;28;20074;-59
2021/12/06 11:32:16;;;;;;;144.23;42.30;;;4.00;99.90;;;;;;5091288;28;20039;-58
2021/12/06 11:34:55;;;;;;;135.93;40.50;;;2.50;99.90;;;;;;5090129;27;20725;-58
2021/12/06 11:37:29;;;;;;;126.75;39.22;;;2.50;99.90;;;;;;5093129;27;20028;-58
2021/12/06 11:40:04;;;;;;;144.68;42.65;;;2.50;99.90;;;;;;5115329;27;20119;-59
2021/12/06 11:42:30;;;;;;;150.63;48.03;;;2.50;99.90;;;;;;5115209;28;20036;-58
2021/12/06 11:44:56;;;;;;;141.88;44.50;;;2.50;99.90;;;;;;5091526;27;20039;-59
2021/12/06 11:47:22;;;;;;;138.32;44.08;;;2.50;99.90;;;;;;5093435;28;21895;-58
2021/12/06 11:49:52;;;;;;;148.73;43.47;;;2.50;99.90;;;;;;5089620;28;20047;-58
2021/12/06 11:52:27;;;;;;;127.20;42.42;;;2.50;99.90;;;;;;5089847;27;20047;-58
2021/12/06 11:55:03;;;;;;;121.45;41.50;;;2.50;99.90;;;;;;5086895;28;20167;-59
2021/12/06 11:57:39;;;;;;;148.05;45.00;;;2.60;99.90;;;;;;5087167;27;20035;-58
2021/12/06 12:00:20;;;;;;;137.70;44.28;;;2.50;99.90;;;;;;5088075;28;20159;-58
2021/12/06 12:02:52;;;;;;;149.93;46.15;;;2.60;99.90;;;;;;5093304;27;20083;-59
2021/12/06 12:05:27;;;;;;;139.95;44.90;;;2.60;99.90;;;;;;5093255;27;20047;-59
2021/12/06 12:08:07;;;;;;;141.23;42.92;;;2.60;99.90;;;;;;5092859;27;20054;-59
2021/12/06 12:10:44;;;;;;;135.43;44.08;;;2.70;99.90;;;;;;5092595;27;20093;-59
2021/12/06 12:13:35;;;;;;;132.88;44.70;;;1.80;99.90;;;;;;5092549;27;20040;-58
2021/12/06 12:16:04;;;;;;;127.05;44.13;;;2.90;99.90;;;;;;5085231;27;20051;-59
2021/12/06 12:18:30;;;;;;;130.98;44.15;;;2.70;99.90;;;;;;5096883;27;20074;-58
2021/12/06 12:20:57;;;;;;;141.63;45.35;;;2.70;99.90;;;;;;5117234;27;20401;-59
2021/12/06 12:23:31;;;;;;;138.77;44.47;;;2.80;99.90;;;;;;5130858;27;20041;-58
2021/12/06 12:26:05;;;;;;;126.32;42.70;;;2.80;99.90;;;;;;5130480;27;20075;-58
2021/12/06 12:28:38;;;;;;;128.68;42.30;;;2.90;99.90;;;;;;5130145;27;20066;-58
2021/12/06 12:31:07;;;;;;;124.10;44.40;;;2.90;99.90;;;;;;5133006;27;20075;-58
2021/12/06 12:33:33;;;;;;;123.28;43.17;;;2.90;99.90;;;;;;5132515;27;20086;-59
2021/12/06 12:36:06;;;;;;;118.53;42.47;;;2.90;99.90;;;;;;5135104;27;20114;-58
2021/12/06 12:38:34;;;;;;;126.28;42.00;;;2.90;99.90;;;;;;5129890;27;20551;-58
2021/12/06 12:41:05;;;;;;;117.45;41.72;;;2.90;99.90;;;;;;5130875;27;20036;-59
2021/12/06 12:43:38;;;;;;;125.57;42.25;;;2.90;99.90;;;;;;5132767;27;20043;-59
2021/12/06 12:46:10;;;;;;;120.53;41.55;;;2.90;99.90;;;;;;5133843;27;20906;-59
2021/12/06 12:48:56;;;;;;;114.82;42.38;;;2.90;99.90;;;;;;5129712;27;20399;-59
2021/12/06 12:51:29;;;;;;;108.03;40.25;;;2.80;99.90;;;;;;5115725;27;20421;-58
2021/12/06 12:54:09;;;;;;;111.47;40.78;;;2.80;99.90;;;;;;5128669;27;20066;-58
2021/12/06 12:56:44;;;;;;;106.25;41.75;;;2.80;99.90;;;;;;5134766;27;20039;-57